createdAt,value
2018-12-09T00:01:28.589Z,1.47
2018-12-09T00:03:56.035Z,1.20
2018-12-09T00:06:22.840Z,1.00
2018-12-09T00:08:49.520Z,1.10
2018-12-09T00:11:16.483Z,1.20
2018-12-09T00:13:44.043Z,1.00
2018-12-09T00:16:10.741Z,1.20
2018-12-09T00:18:37.440Z,1.20
2018-12-09T00:21:04.256Z,1.33
2018-12-09T00:23:31.736Z,1.40
2018-12-09T00:25:58.708Z,1.43
2018-12-09T00:28:25.481Z,1.67
2018-12-09T00:30:52.234Z,1.60
2018-12-09T00:33:18.921Z,1.47
2018-12-09T00:35:45.601Z,1.67
2018-12-09T00:38:12.338Z,1.90
2018-12-09T00:40:39.277Z,1.53
2018-12-09T00:43:06.927Z,1.63
2018-12-09T00:45:33.710Z,1.33
2018-12-09T00:48:00.381Z,1.67
2018-12-09T00:50:27.236Z,1.60
2018-12-09T00:52:54.015Z,2.20
2018-12-09T00:55:20.729Z,2.00
2018-12-09T00:57:47.500Z,2.10
2018-12-09T01:00:15.116Z,1.50
2018-12-09T01:02:42.981Z,1.73
2018-12-09T01:05:08.640Z,1.80
2018-12-09T01:07:35.353Z,1.73
2018-12-09T01:10:02.182Z,1.63
2018-12-09T01:12:28.964Z,1.77
2018-12-09T01:14:55.843Z,1.60
2018-12-09T01:17:23.311Z,1.83
2018-12-09T01:19:50.131Z,1.40
2018-12-09T01:22:17.754Z,1.70
2018-12-09T01:24:44.427Z,1.70
2018-12-09T01:27:11.178Z,1.70
2018-12-09T01:29:38.596Z,1.53
2018-12-09T01:32:05.310Z,1.50
2018-12-09T01:34:32.047Z,1.70
2018-12-09T01:36:58.757Z,1.60
2018-12-09T01:39:25.607Z,1.50
2018-12-09T01:41:52.725Z,1.23
2018-12-09T01:44:19.406Z,1.27
2018-12-09T01:46:46.091Z,1.20
2018-12-09T01:49:13.014Z,1.33
2018-12-09T01:51:40.133Z,1.20
2018-12-09T01:54:08.743Z,1.40
2018-12-09T01:56:35.472Z,1.30
2018-12-09T01:59:03.835Z,1.13
2018-12-09T02:01:30.889Z,0.97
2018-12-09T02:03:57.559Z,1.20
2018-12-09T02:06:24.329Z,1.00
2018-12-09T02:08:51.795Z,1.07
2018-12-09T02:11:18.494Z,0.60
2018-12-09T02:13:45.333Z,1.20
2018-12-09T02:16:12.121Z,0.80
2018-12-09T02:18:38.876Z,0.80
2018-12-09T02:21:06.348Z,0.70
2018-12-09T02:23:33.266Z,0.90
2018-12-09T02:26:00.678Z,0.80
2018-12-09T02:28:28.236Z,0.90
2018-12-09T02:30:55.320Z,0.90
2018-12-09T02:33:22.789Z,0.60
2018-12-09T02:35:50.776Z,1.07
2018-12-09T02:38:18.308Z,0.77
2018-12-09T02:40:46.094Z,0.97
2018-12-09T02:43:13.184Z,1.00
2018-12-09T02:45:40.055Z,0.93
2018-12-09T02:48:07.612Z,1.10
2018-12-09T02:50:34.672Z,0.90
2018-12-09T02:53:02.870Z,0.90
2018-12-09T02:55:31.768Z,0.80
2018-12-09T02:57:58.650Z,1.03
2018-12-09T03:00:25.406Z,0.90
2018-12-09T03:02:52.649Z,1.20
2018-12-09T03:05:20.175Z,0.80
2018-12-09T03:07:47.025Z,1.40
2018-12-09T03:10:14.886Z,0.60
2018-12-09T03:12:42.079Z,0.73
2018-12-09T03:15:09.261Z,0.80
2018-12-09T03:17:36.782Z,0.80
2018-12-09T03:20:04.246Z,0.87
2018-12-09T03:22:31.608Z,0.80
2018-12-09T03:24:59.082Z,0.80
2018-12-09T03:27:26.518Z,0.80
2018-12-09T03:29:53.433Z,1.10
2018-12-09T03:32:20.209Z,0.70
2018-12-09T03:34:47.683Z,0.70
2018-12-09T03:37:14.404Z,1.10
2018-12-09T03:39:41.127Z,0.50
2018-12-09T03:42:08.612Z,0.77
2018-12-09T03:44:35.331Z,0.60
2018-12-09T03:47:02.075Z,0.53
2018-12-09T03:49:29.013Z,0.50
2018-12-09T03:51:56.829Z,0.50
2018-12-09T03:54:23.574Z,0.60
2018-12-09T03:56:51.578Z,0.73
2018-12-09T03:59:18.268Z,0.70
2018-12-09T04:01:45.028Z,0.80
2018-12-09T04:04:11.861Z,0.90
2018-12-09T04:06:38.621Z,0.70
2018-12-09T04:09:05.493Z,0.67
2018-12-09T04:11:32.595Z,0.70
2018-12-09T04:13:59.285Z,0.60
2018-12-09T04:16:26.025Z,0.87
2018-12-09T04:18:52.726Z,0.60
2018-12-09T04:21:19.390Z,0.70
2018-12-09T04:23:46.892Z,0.70
2018-12-09T04:26:14.373Z,0.70
2018-12-09T04:28:41.267Z,0.70
2018-12-09T04:31:08.735Z,0.80
2018-12-09T04:33:35.445Z,0.60
2018-12-09T04:36:02.317Z,0.70
2018-12-09T04:38:28.984Z,0.80
2018-12-09T04:40:55.730Z,0.60
2018-12-09T04:43:22.510Z,0.50
2018-12-09T04:45:49.187Z,0.60
2018-12-09T04:48:15.868Z,0.70
2018-12-09T04:50:42.630Z,0.60
2018-12-09T04:53:09.314Z,0.60
2018-12-09T04:55:36.749Z,0.70
2018-12-09T04:58:03.497Z,0.60
2018-12-09T05:00:42.430Z,0.60
2018-12-09T05:03:09.886Z,0.53
2018-12-09T05:05:37.335Z,0.77
2018-12-09T05:08:04.049Z,0.60
2018-12-09T05:10:30.736Z,0.80
2018-12-09T05:12:57.554Z,0.60
2018-12-09T05:15:24.299Z,0.70
2018-12-09T05:17:50.966Z,0.80
2018-12-09T05:20:17.655Z,0.90
2018-12-09T05:22:44.451Z,1.00
2018-12-09T05:25:11.260Z,1.23
2018-12-09T05:27:37.936Z,0.70
2018-12-09T05:30:04.728Z,0.90
2018-12-09T05:32:32.218Z,0.90
2018-12-09T05:34:59.690Z,0.83
2018-12-09T05:37:26.454Z,0.97
2018-12-09T05:39:53.122Z,1.20
2018-12-09T05:42:19.819Z,0.60
2018-12-09T05:44:46.568Z,1.10
2018-12-09T05:47:13.245Z,1.30
2018-12-09T05:49:39.957Z,1.27
2018-12-09T05:52:06.774Z,1.50
2018-12-09T05:54:33.450Z,1.13
2018-12-09T05:57:00.154Z,1.47
2018-12-09T05:59:26.898Z,1.80
2018-12-09T06:01:53.631Z,1.27
2018-12-09T06:04:21.049Z,1.57
2018-12-09T06:06:47.779Z,1.43
2018-12-09T06:09:14.445Z,1.50
2018-12-09T06:11:41.927Z,1.77
2018-12-09T06:14:08.621Z,1.50
2018-12-09T06:16:35.306Z,1.47
2018-12-09T06:19:02.895Z,1.67
2018-12-09T06:21:29.620Z,1.40
2018-12-09T06:23:56.308Z,1.70
2018-12-09T06:26:23.009Z,1.40
2018-12-09T06:28:49.690Z,1.50
2018-12-09T06:31:16.420Z,1.50
2018-12-09T06:33:43.875Z,1.30
2018-12-09T06:36:10.566Z,1.50
2018-12-09T06:38:37.350Z,1.97
2018-12-09T06:41:04.015Z,1.50
2018-12-09T06:43:31.469Z,1.80
2018-12-09T06:45:58.319Z,1.50
2018-12-09T06:48:25.742Z,1.37
2018-12-09T06:50:52.434Z,1.43
2018-12-09T06:53:19.142Z,2.00
2018-12-09T06:55:45.832Z,1.83
2018-12-09T06:58:12.585Z,1.50
2018-12-09T07:00:39.263Z,1.23
2018-12-09T07:03:05.951Z,1.90
2018-12-09T07:05:32.726Z,1.83
2018-12-09T07:07:59.419Z,1.57
2018-12-09T07:10:26.118Z,1.80
2018-12-09T07:12:52.862Z,1.50
2018-12-09T07:15:19.585Z,1.43
2018-12-09T07:17:46.242Z,1.23
2018-12-09T07:20:13.732Z,1.27
2018-12-09T07:22:40.468Z,1.33
2018-12-09T07:25:07.228Z,1.57
2018-12-09T07:27:34.052Z,1.63
2018-12-09T07:30:02.582Z,1.37
2018-12-09T07:32:27.526Z,1.30
2018-12-09T07:34:54.288Z,1.50
2018-12-09T07:37:21.003Z,1.47
2018-12-09T07:39:48.420Z,2.00
2018-12-09T07:42:15.163Z,1.47
2018-12-09T07:44:41.819Z,1.50
2018-12-09T07:47:09.299Z,1.53
2018-12-09T07:49:36.813Z,1.50
2018-12-09T07:52:04.296Z,1.40
2018-12-09T07:54:30.978Z,1.10
2018-12-09T07:56:57.753Z,1.30
2018-12-09T07:59:24.439Z,1.60
2018-12-09T08:01:51.859Z,1.33
2018-12-09T08:04:18.585Z,1.40
2018-12-09T08:06:45.299Z,1.50
2018-12-09T08:09:12.026Z,1.20
2018-12-09T08:11:38.747Z,1.20
2018-12-09T08:14:07.968Z,1.43
2018-12-09T08:16:33.006Z,1.23
2018-12-09T08:18:59.689Z,0.90
2018-12-09T08:21:27.204Z,1.10
2018-12-09T08:23:53.947Z,0.93
2018-12-09T08:26:20.625Z,1.30
2018-12-09T08:28:47.319Z,1.20
2018-12-09T08:31:14.070Z,1.40
2018-12-09T08:33:40.749Z,0.87
2018-12-09T08:36:07.537Z,1.17
2018-12-09T08:38:34.325Z,0.97
2018-12-09T08:41:01.738Z,1.17
2018-12-09T08:43:28.429Z,1.40
2018-12-09T08:45:57.263Z,1.13
2018-12-09T08:48:23.108Z,0.70
2018-12-09T08:50:49.840Z,1.23
2018-12-09T08:53:16.984Z,0.87
2018-12-09T08:55:43.730Z,0.93
2018-12-09T08:58:11.351Z,0.77
2018-12-09T09:00:38.106Z,1.33
2018-12-09T09:03:05.089Z,1.00
2018-12-09T09:05:32.039Z,0.77
2018-12-09T09:07:58.703Z,0.80
2018-12-09T09:10:25.455Z,1.07
2018-12-09T09:12:52.114Z,0.70
2018-12-09T09:15:18.831Z,0.80
2018-12-09T09:17:45.881Z,0.87
2018-12-09T09:20:12.726Z,1.00
2018-12-09T09:22:39.848Z,0.50
2018-12-09T09:25:07.321Z,1.00
2018-12-09T09:27:34.738Z,0.70
2018-12-09T09:30:01.442Z,0.87
2018-12-09T09:32:28.246Z,0.70
2018-12-09T09:34:55.731Z,0.70
2018-12-09T09:37:22.925Z,0.60
2018-12-09T09:39:49.674Z,0.70
2018-12-09T09:42:16.343Z,0.70
2018-12-09T09:44:43.155Z,0.60
2018-12-09T09:47:10.066Z,0.50
2018-12-09T09:49:36.729Z,0.40
2018-12-09T09:52:04.208Z,0.60
2018-12-09T09:54:30.965Z,0.90
2018-12-09T09:56:57.659Z,0.70
2018-12-09T09:59:24.530Z,0.60
2018-12-09T10:01:51.667Z,0.50
2018-12-09T10:04:18.392Z,0.60
2018-12-09T10:06:45.172Z,0.50
2018-12-09T10:09:11.987Z,0.60
2018-12-09T10:11:39.469Z,0.57
2018-12-09T10:14:07.006Z,0.70
2018-12-09T10:16:34.015Z,0.40
2018-12-09T10:19:00.681Z,0.50
2018-12-09T10:21:27.416Z,0.43
2018-12-09T10:23:54.418Z,0.47
2018-12-09T10:26:21.489Z,0.40
2018-12-09T10:28:48.425Z,0.60
2018-12-09T10:31:15.596Z,0.40
2018-12-09T10:33:42.736Z,0.50
2018-12-09T10:36:09.612Z,0.60
2018-12-09T10:38:37.086Z,0.43
2018-12-09T10:41:03.763Z,0.53
2018-12-09T10:43:30.560Z,0.50
2018-12-09T10:45:57.240Z,0.40
2018-12-09T10:48:24.969Z,0.40
2018-12-09T10:50:52.001Z,0.40
2018-12-09T10:53:18.944Z,0.47
2018-12-09T10:55:45.635Z,0.37
2018-12-09T10:58:12.356Z,0.40
2018-12-09T11:00:45.827Z,0.30
2018-12-09T11:03:12.738Z,0.37
2018-12-09T11:05:39.504Z,0.20
2018-12-09T11:08:06.203Z,0.27
2018-12-09T11:10:33.161Z,0.50
2018-12-09T11:13:00.047Z,0.40
2018-12-09T11:15:26.739Z,0.27
2018-12-09T11:17:54.083Z,0.27
2018-12-09T11:20:20.773Z,0.20
2018-12-09T11:22:47.421Z,0.23
2018-12-09T11:25:14.927Z,0.20
2018-12-09T11:27:41.655Z,0.30
2018-12-09T11:30:08.541Z,0.20
2018-12-09T11:32:36.031Z,0.20
2018-12-09T11:35:03.562Z,0.47
2018-12-09T11:37:30.285Z,0.40
2018-12-09T11:39:57.747Z,0.60
2018-12-09T11:42:24.435Z,0.20
2018-12-09T11:44:51.946Z,0.40
2018-12-09T11:47:18.618Z,0.30
2018-12-09T11:49:45.303Z,0.20
2018-12-09T11:52:12.023Z,0.30
2018-12-09T11:54:38.792Z,0.37
2018-12-09T11:57:05.577Z,0.20
2018-12-09T11:59:32.331Z,0.10
2018-12-09T12:01:59.773Z,0.30
2018-12-09T12:04:26.547Z,0.30
2018-12-09T12:06:53.966Z,0.20
2018-12-09T12:09:20.637Z,0.30
2018-12-09T12:11:48.094Z,0.40
2018-12-09T12:14:14.834Z,0.30
2018-12-09T12:16:42.280Z,0.20
2018-12-09T12:19:10.242Z,0.30
2018-12-09T12:21:37.807Z,0.20
2018-12-09T12:24:04.574Z,0.40
2018-12-09T12:26:32.189Z,0.20
2018-12-09T12:28:59.916Z,0.23
2018-12-09T12:31:26.810Z,0.37
2018-12-09T12:33:54.580Z,0.30
2018-12-09T12:36:22.275Z,0.40
2018-12-09T12:38:48.967Z,0.40
2018-12-09T12:41:15.692Z,0.30
2018-12-09T12:43:42.442Z,0.20
2018-12-09T12:46:09.310Z,0.30
2018-12-09T12:48:36.614Z,0.20
2018-12-09T12:51:03.321Z,0.40
2018-12-09T12:53:30.046Z,0.20
2018-12-09T12:55:57.273Z,0.20
2018-12-09T12:58:24.234Z,0.20
2018-12-09T13:00:51.760Z,0.20
2018-12-09T13:03:18.756Z,0.20
2018-12-09T13:05:46.227Z,0.30
2018-12-09T13:08:13.080Z,0.20
2018-12-09T13:10:39.826Z,0.30
2018-12-09T13:13:06.536Z,0.10
2018-12-09T13:15:33.365Z,0.30
2018-12-09T13:18:00.098Z,0.20
2018-12-09T13:20:26.746Z,0.13
2018-12-09T13:22:54.247Z,0.20
2018-12-09T13:25:20.898Z,0.10
2018-12-09T13:27:47.588Z,0.17
2018-12-09T13:30:15.095Z,0.20
2018-12-09T13:32:41.790Z,0.20
2018-12-09T13:35:09.215Z,0.30
2018-12-09T13:37:35.892Z,0.30
2018-12-09T13:40:02.647Z,0.20
2018-12-09T13:42:29.412Z,0.10
2018-12-09T13:44:56.091Z,0.20
2018-12-09T13:47:22.762Z,0.30
2018-12-09T13:49:49.519Z,0.20
2018-12-09T13:52:16.198Z,0.20
2018-12-09T13:54:42.880Z,0.40
2018-12-09T13:57:09.630Z,0.37
2018-12-09T13:59:36.329Z,0.40
2018-12-09T14:02:03.770Z,0.30
2018-12-09T14:04:30.488Z,0.53
2018-12-09T14:06:57.812Z,0.30
2018-12-09T14:09:24.478Z,0.30
2018-12-09T14:11:51.242Z,0.30
2018-12-09T14:14:17.928Z,0.40
2018-12-09T14:16:44.588Z,0.40
2018-12-09T14:19:11.341Z,0.50
2018-12-09T14:21:38.912Z,0.40
2018-12-09T14:24:05.607Z,0.43
2018-12-09T14:26:32.642Z,0.30
2018-12-09T14:29:00.116Z,0.40
2018-12-09T14:31:27.711Z,0.40
2018-12-09T14:33:54.743Z,0.40
2018-12-09T14:36:21.441Z,0.40
2018-12-09T14:38:48.378Z,0.40
2018-12-09T14:41:16.066Z,0.33
2018-12-09T14:43:42.947Z,0.30
2018-12-09T14:46:10.656Z,0.40
2018-12-09T14:48:37.648Z,0.20
2018-12-09T14:51:04.403Z,0.20
2018-12-09T14:53:31.266Z,0.27
2018-12-09T14:55:58.785Z,0.30
2018-12-09T14:58:25.800Z,0.30
2018-12-09T15:00:52.489Z,0.20
2018-12-09T15:03:19.168Z,0.30
2018-12-09T15:05:46.604Z,0.20
2018-12-09T15:08:14.201Z,0.30
2018-12-09T15:10:40.912Z,0.30
2018-12-09T15:13:07.600Z,0.20
2018-12-09T15:15:34.303Z,0.30
2018-12-09T15:18:01.782Z,0.30
2018-12-09T15:20:28.489Z,0.20
2018-12-09T15:22:55.946Z,0.30
2018-12-09T15:25:23.400Z,0.30
2018-12-09T15:27:54.127Z,0.30
2018-12-09T15:30:21.620Z,0.30
2018-12-09T15:32:49.036Z,0.37
2018-12-09T15:35:15.819Z,0.30
2018-12-09T15:37:43.375Z,0.30
2018-12-09T15:40:10.383Z,0.50
2018-12-09T15:42:37.926Z,0.37
2018-12-09T15:45:04.690Z,0.40
2018-12-09T15:47:31.385Z,0.40
2018-12-09T15:49:58.110Z,0.40
2018-12-09T15:52:24.777Z,0.60
2018-12-09T15:54:51.477Z,0.50
2018-12-09T15:57:18.301Z,0.60
2018-12-09T15:59:45.044Z,0.40
2018-12-09T16:02:12.503Z,0.50
2018-12-09T16:04:39.296Z,0.50
2018-12-09T16:07:06.001Z,0.50
2018-12-09T16:09:32.731Z,0.70
2018-12-09T16:12:00.473Z,0.77
2018-12-09T16:14:27.148Z,0.60
2018-12-09T16:16:53.821Z,0.90
2018-12-09T16:19:20.596Z,1.20
2018-12-09T16:21:47.283Z,0.90
2018-12-09T16:24:13.951Z,1.17
2018-12-09T16:26:41.519Z,1.10
2018-12-09T16:29:08.210Z,1.10
2018-12-09T16:31:34.943Z,1.00
2018-12-09T16:34:01.746Z,1.40
2018-12-09T16:36:29.206Z,1.10
2018-12-09T16:38:55.924Z,1.03
2018-12-09T16:41:22.629Z,1.07
2018-12-09T16:43:49.317Z,1.03
2018-12-09T16:46:16.115Z,0.80
2018-12-09T16:48:43.372Z,0.87
2018-12-09T16:51:10.380Z,0.80
2018-12-09T16:53:37.912Z,0.90
2018-12-09T16:56:04.765Z,0.53
2018-12-09T16:58:32.227Z,0.60
2018-12-09T17:00:58.969Z,0.50
2018-12-09T17:03:25.714Z,0.73
2018-12-09T17:05:52.631Z,0.67
2018-12-09T17:08:19.341Z,0.70
2018-12-09T17:10:46.051Z,0.60
2018-12-09T17:13:13.511Z,0.70
2018-12-09T17:15:40.963Z,0.90
2018-12-09T17:18:08.372Z,0.83
2018-12-09T17:20:35.949Z,0.87
2018-12-09T17:23:03.378Z,1.10
2018-12-09T17:25:30.137Z,0.97
2018-12-09T17:27:56.880Z,0.80
2018-12-09T17:30:23.696Z,0.80
2018-12-09T17:32:50.546Z,0.73
2018-12-09T17:35:17.267Z,0.60
2018-12-09T17:37:44.036Z,0.60
2018-12-09T17:40:10.847Z,0.53
2018-12-09T17:42:38.305Z,0.60
2018-12-09T17:45:05.246Z,0.60
2018-12-09T17:47:32.151Z,0.60
2018-12-09T17:49:59.090Z,0.60
2018-12-09T17:52:26.527Z,0.60
2018-12-09T17:54:53.193Z,0.70
2018-12-09T17:57:19.893Z,0.73
2018-12-09T17:59:46.594Z,0.70
2018-12-09T18:02:13.433Z,0.70
2018-12-09T18:04:41.196Z,0.83
2018-12-09T18:07:08.114Z,0.67
2018-12-09T18:09:34.860Z,0.77
2018-12-09T18:12:01.574Z,0.50
2018-12-09T18:14:28.248Z,0.80
2018-12-09T18:16:54.995Z,0.90
2018-12-09T18:19:22.418Z,0.90
2018-12-09T18:21:49.552Z,0.90
2018-12-09T18:24:16.331Z,1.03
2018-12-09T18:26:43.065Z,0.93
2018-12-09T18:29:10.557Z,0.90
2018-12-09T18:31:38.367Z,0.90
2018-12-09T18:34:05.050Z,1.10
2018-12-09T18:36:32.106Z,0.90
2018-12-09T18:38:58.923Z,1.00
2018-12-09T18:41:25.947Z,1.13
2018-12-09T18:43:52.803Z,1.40
2018-12-09T18:46:19.780Z,1.20
2018-12-09T18:48:46.547Z,1.17
2018-12-09T18:51:13.600Z,1.00
2018-12-09T18:53:40.350Z,1.10
2018-12-09T18:56:07.304Z,1.00
2018-12-09T18:58:34.359Z,1.30
2018-12-09T19:01:01.050Z,0.93
2018-12-09T19:03:28.130Z,1.20
2018-12-09T19:05:55.017Z,1.40
2018-12-09T19:08:21.857Z,1.63
2018-12-09T19:10:48.590Z,1.03
2018-12-09T19:13:15.398Z,1.20
2018-12-09T19:15:42.800Z,0.87
2018-12-09T19:18:09.645Z,0.80
2018-12-09T19:20:37.295Z,0.90
2018-12-09T19:23:04.197Z,0.90
2018-12-09T19:25:31.811Z,0.80
2018-12-09T19:27:59.387Z,0.70
2018-12-09T19:30:26.828Z,0.80
2018-12-09T19:32:53.521Z,0.70
2018-12-09T19:35:20.306Z,1.00
2018-12-09T19:37:47.200Z,1.00
2018-12-09T19:40:14.153Z,0.80
2018-12-09T19:42:41.001Z,0.77
2018-12-09T19:45:08.554Z,0.80
2018-12-09T19:47:35.454Z,0.97
2018-12-09T19:50:02.991Z,0.80
2018-12-09T19:52:29.694Z,0.60
2018-12-09T19:54:56.529Z,0.80
2018-12-09T19:57:23.257Z,0.80
2018-12-09T19:59:50.076Z,0.70
2018-12-09T20:02:17.577Z,0.90
2018-12-09T20:04:44.480Z,0.60
2018-12-09T20:07:11.510Z,0.80
2018-12-09T20:09:39.807Z,0.80
2018-12-09T20:12:06.754Z,0.73
2018-12-09T20:14:33.509Z,1.00
2018-12-09T20:17:00.950Z,1.00
2018-12-09T20:19:27.858Z,0.90
2018-12-09T20:21:55.011Z,0.90
2018-12-09T20:24:22.010Z,0.83
2018-12-09T20:26:48.764Z,0.90
2018-12-09T20:29:15.698Z,1.20
2018-12-09T20:31:42.382Z,0.90
2018-12-09T20:34:09.162Z,1.13
2018-12-09T20:36:35.842Z,1.33
2018-12-09T20:39:03.376Z,1.10
2018-12-09T20:41:30.194Z,1.10
2018-12-09T20:43:56.932Z,1.37
2018-12-09T20:46:24.515Z,1.30
2018-12-09T20:48:51.276Z,1.20
2018-12-09T20:51:18.853Z,1.37
2018-12-09T20:53:46.595Z,1.10
2018-12-09T20:56:13.360Z,1.17
2018-12-09T20:58:40.306Z,1.23
2018-12-09T21:01:07.173Z,1.23
2018-12-09T21:03:34.291Z,1.53
2018-12-09T21:06:01.034Z,1.50
2018-12-09T21:08:27.759Z,1.37
2018-12-09T21:10:54.447Z,1.20
2018-12-09T21:13:21.156Z,1.50
2018-12-09T21:15:47.857Z,1.20
2018-12-09T21:18:15.360Z,1.27
2018-12-09T21:20:42.206Z,1.50
2018-12-09T21:23:08.924Z,1.00
2018-12-09T21:25:35.643Z,1.37
2018-12-09T21:28:03.349Z,1.27
2018-12-09T21:30:33.333Z,1.37
2018-12-09T21:33:00.484Z,1.40
2018-12-09T21:35:27.227Z,1.50
2018-12-09T21:37:54.238Z,1.30
2018-12-09T21:40:20.933Z,1.60
2018-12-09T21:42:47.927Z,1.80
2018-12-09T21:45:15.410Z,1.77
2018-12-09T21:47:42.191Z,1.70
2018-12-09T21:50:08.949Z,1.80
2018-12-09T21:52:35.635Z,1.50
2018-12-09T21:55:02.509Z,1.50
2018-12-09T21:57:29.179Z,1.50
2018-12-09T21:59:56.673Z,1.40
2018-12-09T22:02:23.726Z,1.40
2018-12-09T22:04:50.383Z,1.27
2018-12-09T22:07:17.163Z,1.10
2018-12-09T22:09:44.065Z,1.20
2018-12-09T22:12:10.969Z,1.23
2018-12-09T22:14:37.702Z,1.53
2018-12-09T22:17:04.952Z,1.50
2018-12-09T22:19:31.607Z,1.60
2018-12-09T22:21:58.352Z,1.30
2018-12-09T22:24:25.926Z,1.53
2018-12-09T22:26:52.601Z,1.53
2018-12-09T22:29:19.405Z,1.57
2018-12-09T22:31:46.165Z,1.90
2018-12-09T22:34:12.862Z,2.00
2018-12-09T22:36:39.983Z,1.70
2018-12-09T22:39:06.797Z,1.63
2018-12-09T22:41:33.632Z,2.30
2018-12-09T22:44:00.636Z,2.00
2018-12-09T22:46:27.617Z,1.93
2018-12-09T22:48:54.320Z,1.83
2018-12-09T22:51:21.127Z,1.93
2018-12-09T22:53:47.843Z,2.00
2018-12-09T22:56:14.708Z,2.10
2018-12-09T22:58:42.358Z,2.13
2018-12-09T23:01:15.137Z,2.10
2018-12-09T23:03:42.644Z,1.93
2018-12-09T23:06:09.463Z,2.00
2018-12-09T23:08:36.258Z,1.77
2018-12-09T23:11:03.041Z,1.57
2018-12-09T23:13:29.708Z,1.90
2018-12-09T23:15:56.494Z,1.40
2018-12-09T23:18:23.292Z,1.47
2018-12-09T23:20:49.980Z,1.57
2018-12-09T23:23:16.695Z,1.60
2018-12-09T23:25:44.179Z,2.00
2018-12-09T23:28:11.024Z,1.80
2018-12-09T23:30:38.442Z,1.70
2018-12-09T23:33:06.135Z,1.40
2018-12-09T23:35:32.909Z,1.73
2018-12-09T23:37:59.562Z,1.90
2018-12-09T23:40:26.255Z,1.60
2018-12-09T23:42:53.462Z,2.13
2018-12-09T23:45:20.899Z,1.70
2018-12-09T23:47:47.957Z,1.93
2018-12-09T23:50:14.670Z,2.20
2018-12-09T23:52:41.368Z,2.20
2018-12-09T23:55:09.142Z,2.87
2018-12-09T23:57:35.828Z,2.50
